ADDS METAR Data INFO
IDs: Format: Raw Decoded Include TAF

Data at: 0545 UTC 25 Feb 2018

KW43 250535Z AUTO 10SM CLR M07/M16 A2971 RMK AO2
KW43 250515Z AUTO 10SM CLR M08/M16 A2970 RMK AO2
KW43 250455Z AUTO 10SM CLR M06/M15 A2970 RMK AO2
KW43 250435Z AUTO 10SM CLR M06/M15 A2970 RMK AO2
KW43 250415Z AUTO 10SM CLR M06/M15 A2970 RMK AO2
KW43 250355Z AUTO 10SM CLR M06/M15 A2969 RMK AO2
KW43 250335Z AUTO 21010KT 10SM CLR M06/M14 A2969 RMK AO2
KW43 250315Z AUTO 10SM CLR M06/M14 A2968 RMK AO2
KW43 250255Z AUTO 10SM CLR M06/M14 A2968 RMK AO2
KW43 250235Z AUTO 10SM CLR M06/M13 A2968 RMK AO2
KW43 250215Z AUTO 10SM CLR M06/M13 A2968 RMK AO2
KW43 250155Z AUTO 10SM CLR M06/M13 A2968 RMK AO2
KW43 250135Z AUTO 10SM CLR M06/M13 A2968 RMK AO2
KW43 250115Z AUTO 10SM CLR M05/M13 A2968 RMK AO2
KW43 250055Z AUTO 10SM CLR M05/M13 A2968 RMK AO2
KW43 250035Z AUTO 22007KT 10SM CLR M05/M12 A2968 RMK AO2
KW43 250015Z AUTO 22008KT 10SM CLR M04/M12 A2967 RMK AO2
KW43 242355Z AUTO 25012KT 10SM CLR M03/M13 A2967 RMK AO2
KW43 242335Z AUTO 24009KT 10SM CLR M03/M12 A2967 RMK AO2
KW43 242315Z AUTO 10SM CLR M03/M12 A2967 RMK AO2
KW43 242255Z AUTO 25008KT 10SM CLR M03/M12 A2968 RMK AO2
KW43 242235Z AUTO 25010G16KT 10SM CLR M03/M12 A2968 RMK AO2
KW43 242215Z AUTO 10SM CLR M03/M12 A2968 RMK AO2
KW43 242155Z AUTO 10SM CLR M03/M12 A2968 RMK AO2
KW43 242135Z AUTO 10SM CLR M03/M11 A2968 RMK AO2
KW43 242115Z AUTO 10SM CLR M03/M11 A2968 RMK AO2
KW43 242055Z AUTO 10SM SCT038 SCT070 SCT080 M03/M11 A2968 RMK AO2
KW43 242035Z AUTO 10SM SCT042 SCT055 OVC085 M03/M11 A2968 RMK AO2
KW43 242015Z AUTO 27013KT 10SM SCT037 SCT045 OVC080 M03/M11 A2969 RMK AO2
KW43 241955Z AUTO 10SM OVC080 M03/M11 A2970 RMK AO2
KW43 241935Z AUTO 10SM SCT060 OVC080 M03/M11 A2970 RMK AO2
KW43 241915Z AUTO 10SM SCT060 SCT080 M03/M11 A2971 RMK AO2
KW43 241855Z AUTO 10SM CLR M03/M11 A2971 RMK AO2
KW43 241835Z AUTO 10SM CLR M03/M11 A2972 RMK AO2
KW43 241815Z AUTO 28010KT 10SM CLR M03/M11 A2972 RMK AO2
KW43 241755Z AUTO 10SM CLR M04/M12 A2973 RMK AO2
KW43 241735Z AUTO 10SM CLR M04/M13 A2973 RMK AO2
KW43 241715Z AUTO 27007KT 10SM CLR M05/M12 A2974 RMK AO2
KW43 241655Z AUTO 31005KT 10SM CLR M05/M12 A2975 RMK AO2
KW43 241635Z AUTO 34005KT 10SM CLR M05/M13 A2975 RMK AO2
KW43 241615Z AUTO 32003KT 10SM CLR M06/M13 A2975 RMK AO2
KW43 241555Z AUTO 32004KT 10SM CLR M06/M13 A2976 RMK AO2
KW43 241535Z AUTO 31004KT 10SM CLR M06/M13 A2975 RMK AO2
KW43 241510Z AUTO 27004KT 10SM CLR M06/M12 A2975 RMK AO2
KW43 241455Z AUTO 27003KT 10SM CLR M07/M12 A2975 RMK AO2
KW43 241435Z AUTO 25005KT 10SM CLR M10/M12 A2975 RMK AO2
KW43 241415Z AUTO 10SM CLR M10/M12 A2975 RMK AO2
KW43 241355Z AUTO 10SM CLR M10/M12 A2975 RMK AO2
KW43 241335Z AUTO 10SM CLR M10/M13 A2975 RMK AO2
KW43 241315Z AUTO 10SM CLR M09/M12 A2975 RMK AO2
KW43 241255Z AUTO 10SM CLR M08/M11 A2975 RMK AO2
KW43 241235Z AUTO 10SM CLR M08/M11 A2975 RMK AO2
KW43 241215Z AUTO 10SM CLR M07/M10 A2973 RMK AO2
KW43 241155Z AUTO 10SM CLR M06/M10 A2973 RMK AO2
KW43 241135Z AUTO 21010KT 10SM SCT023 M06/M10 A2973 RMK AO2
KW43 241115Z AUTO 10SM SCT023 M06/M10 A2974 RMK AO2
KW43 241055Z AUTO 10SM SCT032 BKN060 M06/M09 A2974 RMK AO2
KW43 241035Z AUTO 20011KT 10SM SCT030 BKN060 OVC075 M05/M08 A2975 RMK AO2
KW43 241015Z AUTO 22009KT 10SM BKN055 OVC070 M05/M08 A2975 RMK AO2
KW43 240955Z AUTO 20011KT 3SM -SN SCT011 BKN020 OVC055 M05/M08 A2975 RMK AO2
KW43 240935Z AUTO 21008KT 4SM -SN SCT013 BKN027 OVC044 M05/M08 A2977 RMK AO2
KW43 240915Z AUTO 21010KT 10SM -SN SCT024 SCT029 OVC044 M06/M10 A2977 RMK AO2
KW43 240855Z AUTO 10SM SCT022 OVC030 M06/M11 A2979 RMK AO2
KW43 240835Z AUTO 10SM BKN028 BKN038 OVC090 M06/M11 A2981 RMK AO2
KW43 240815Z AUTO 22004KT 10SM BKN028 BKN038 OVC070 M05/M10 A2981 RMK AO2
KW43 240755Z AUTO 22006KT 10SM SCT038 BKN060 OVC085 M03/M10 A2983 RMK AO2
KW43 240735Z AUTO 21009KT 10SM OVC085 M03/M11 A2983 RMK AO2
KW43 240715Z AUTO 20012KT 10SM SCT048 BKN095 OVC120 M03/M10 A2983 RMK AO2
KW43 240655Z AUTO 20011KT 10SM SCT070 BKN090 BKN110 M03/M10 A2984 RMK AO2
KW43 240635Z AUTO 20008KT 10SM SCT100 BKN110 M03/M11 A2985 RMK AO2
KW43 240615Z AUTO 10SM OVC110 M06/M12 A2985 RMK AO2
KW43 240555Z AUTO 28005KT 10SM BKN110 M06/M12 A2986 RMK AO2
KW43 240535Z AUTO 21004KT 10SM CLR M05/M12 A2987 RMK AO2
KW43 240515Z AUTO 22005KT 10SM CLR M05/M12 A2988 RMK AO2
KW43 240455Z AUTO 22006KT 10SM CLR M05/M12 A2988 RMK AO2
KW43 240435Z AUTO 22006KT 10SM CLR M05/M12 A2990 RMK AO2
KW43 240415Z AUTO 18005KT 10SM CLR M04/M11 A2991 RMK AO2
KW43 240355Z AUTO 17008KT 10SM CLR M04/M12 A2992 RMK AO2
KW43 240335Z AUTO 20007KT 10SM CLR M05/M12 A2992 RMK AO2
KW43 240315Z AUTO 20010KT 10SM CLR M06/M13 A2993 RMK AO2
KW43 240255Z AUTO 10SM CLR M08/M14 A2994 RMK AO2
KW43 240235Z AUTO 10SM CLR M09/M16 A2995 RMK AO2
KW43 240215Z AUTO 10SM CLR M09/M16 A2996 RMK AO2
KW43 240155Z AUTO 10SM CLR M08/M16 A2996 RMK AO2
KW43 240135Z AUTO 10SM CLR M08/M16 A2997 RMK AO2
KW43 240115Z AUTO 10SM CLR M06/M17 A2997 RMK AO2
KW43 240055Z AUTO 10SM CLR M05/M16 A2997 RMK AO2
KW43 240035Z AUTO 10SM CLR M06/M16 A2997 RMK AO2
KW43 240015Z AUTO 17006KT 10SM CLR M06/M15 A2997 RMK AO2
KW43 232355Z AUTO 10SM CLR M04/M15 A2997 RMK AO2
KW43 232335Z AUTO 26008KT 10SM CLR M03/M15 A2997 RMK AO2
KW43 232315Z AUTO 10SM CLR M02/M16 A2997 RMK AO2
KW43 232255Z AUTO 10SM CLR M03/M15 A2997 RMK AO2
KW43 232235Z AUTO 28003KT 10SM CLR M02/M14 A2997 RMK AO2
KW43 232215Z AUTO 27005KT 10SM CLR M02/M14 A2998 RMK AO2
KW43 232155Z AUTO 10SM CLR M02/M14 A2998 RMK AO2
KW43 232135Z AUTO 26008KT 10SM CLR M02/M14 A2999 RMK AO2
KW43 232115Z AUTO 27007KT 10SM CLR M02/M14 A3000 RMK AO2
KW43 232055Z AUTO 27009KT 10SM CLR M01/M15 A3000 RMK AO2
KW43 232035Z AUTO 10SM CLR M01/M15 A3001 RMK AO2
KW43 232015Z AUTO 10SM CLR M02/M16 A3001 RMK AO2
KW43 231955Z AUTO 10SM CLR M02/M15 A3001 RMK AO2
KW43 231935Z AUTO 27004KT 10SM CLR M04/M15 A3002 RMK AO2
KW43 231915Z AUTO 26003KT 10SM CLR M05/M15 A3004 RMK AO2
KW43 231855Z AUTO 24006KT 10SM CLR M06/M15 A3004 RMK AO2
KW43 231835Z AUTO 23009KT 10SM CLR M06/M16 A3005 RMK AO2
KW43 231815Z AUTO 24005KT 10SM CLR M08/M16 A3006 RMK AO2
KW43 231755Z AUTO 10SM CLR M09/M17 A3007 RMK AO2